Time;durP1;ratioP1;P1;durP2;ratioP2;P2;SDS_P1;SDS_P2;PMS_P1;PMS_P2;Temp;Humidity;BMP_temperature;BMP_pressure;BME280_temperature;BME280_humidity;BME280_pressure;Samples;Min_cycle;Max_cycle;Signal;HPM_P1;HPM_P2
2022/05/04 00:02:19;;;;;;;13.38;5.65;;;;;;;;;;5013373;28;20432;-81
2022/05/04 00:04:45;;;;;;;19.23;5.28;;;;;;;;;;5013953;28;20033;-81
2022/05/04 00:07:10;;;;;;;14.68;5.70;;;;;;;;;;5013994;28;20045;-82
2022/05/04 00:09:35;;;;;;;22.95;5.88;;;;;;;;;;5015236;28;20045;-82
2022/05/04 00:12:00;;;;;;;16.20;5.00;;;;;;;;;;5013150;28;20225;-81
2022/05/04 00:14:25;;;;;;;21.10;5.93;;;;;;;;;;5013550;28;20018;-81
2022/05/04 00:16:51;;;;;;;14.32;5.43;;;;;;;;;;5046524;28;20478;-81
2022/05/04 00:19:17;;;;;;;18.35;5.63;;;;;;;;;;5014901;28;20029;-81
2022/05/04 00:21:42;;;;;;;20.75;6.05;;;;;;;;;;5023462;28;20018;-82
2022/05/04 00:24:07;;;;;;;14.25;5.22;;;;;;;;;;5049554;28;20123;-81
2022/05/04 00:26:32;;;;;;;15.65;5.78;;;;;;;;;;5034390;28;20457;-81
2022/05/04 00:28:57;;;;;;;13.98;5.97;;;;;;;;;;5066468;28;20021;-82
2022/05/04 00:31:23;;;;;;;15.82;5.63;;;;;;;;;;5034480;28;20469;-82
2022/05/04 00:33:48;;;;;;;17.55;6.55;;;;;;;;;;5033856;28;20037;-82
2022/05/04 00:36:13;;;;;;;13.05;5.78;;;;;;;;;;5066325;28;20017;-81
2022/05/04 00:38:38;;;;;;;14.32;5.15;;;;;;;;;;5034405;28;20152;-81
2022/05/04 00:41:04;;;;;;;16.27;5.40;;;;;;;;;;5033996;28;20495;-81
2022/05/04 00:43:29;;;;;;;14.73;5.55;;;;;;;;;;5049341;28;20074;-81
2022/05/04 00:45:54;;;;;;;23.75;6.28;;;;;;;;;;5066202;28;20119;-81
2022/05/04 00:48:20;;;;;;;16.80;5.90;;;;;;;;;;5034075;28;20129;-81
2022/05/04 00:50:46;;;;;;;17.40;6.43;;;;;;;;;;5033923;28;20017;-81
2022/05/04 00:53:12;;;;;;;16.55;6.03;;;;;;;;;;5065572;28;20057;-81
2022/05/04 00:55:38;;;;;;;13.95;5.55;;;;;;;;;;5049434;28;20102;-82
2022/05/04 01:00:48;;;;;;;13.60;5.65;;;;;;;;;;5034125;28;20036;-81
2022/05/04 01:03:14;;;;;;;17.38;5.95;;;;;;;;;;5065464;28;20075;-81
2022/05/04 01:05:39;;;;;;;16.45;5.30;;;;;;;;;;5048740;28;20112;-82
2022/05/04 01:08:04;;;;;;;14.20;5.43;;;;;;;;;;5033449;28;20025;-82
2022/05/04 01:10:29;;;;;;;18.15;6.47;;;;;;;;;;5033409;28;20048;-81
2022/05/04 01:12:54;;;;;;;18.50;5.57;;;;;;;;;;5065206;28;20025;-81
2022/05/04 01:15:20;;;;;;;16.77;6.22;;;;;;;;;;5065629;28;20018;-81
2022/05/04 01:17:47;;;;;;;14.57;5.95;;;;;;;;;;5065474;28;20423;-81
2022/05/04 01:20:13;;;;;;;15.23;5.15;;;;;;;;;;5033483;28;20026;-81
2022/05/04 01:22:38;;;;;;;19.58;4.90;;;;;;;;;;5065057;28;20024;-81
2022/05/04 01:25:04;;;;;;;12.70;5.63;;;;;;;;;;5065644;28;20028;-82
2022/05/04 01:27:29;;;;;;;16.95;5.68;;;;;;;;;;5065171;28;20025;-82
2022/05/04 01:29:54;;;;;;;14.88;6.00;;;;;;;;;;5065275;28;20505;-81
2022/05/04 01:32:20;;;;;;;18.35;6.78;;;;;;;;;;5064992;28;20024;-81
2022/05/04 01:34:45;;;;;;;15.90;6.90;;;;;;;;;;5065291;28;20381;-81
2022/05/04 01:37:10;;;;;;;15.60;5.38;;;;;;;;;;5065432;28;20059;-81
2022/05/04 01:39:36;;;;;;;25.25;6.00;;;;;;;;;;5065546;28;20473;-81
2022/05/04 01:42:05;;;;;;;14.27;5.28;;;;;;;;;;5065177;28;20021;-81
2022/05/04 01:44:31;;;;;;;19.13;5.70;;;;;;;;;;5048588;28;20032;-81
2022/05/04 01:46:56;;;;;;;14.88;5.70;;;;;;;;;;5065003;28;20025;-81
2022/05/04 01:49:21;;;;;;;19.33;5.97;;;;;;;;;;5033189;28;20079;-81
2022/05/04 01:51:46;;;;;;;15.23;5.57;;;;;;;;;;5064535;28;20018;-81
2022/05/04 01:54:12;;;;;;;21.10;6.05;;;;;;;;;;5064139;28;20033;-81
2022/05/04 01:56:37;;;;;;;15.07;5.57;;;;;;;;;;5065026;28;20415;-81
2022/05/04 01:59:02;;;;;;;15.95;5.85;;;;;;;;;;5048347;28;20536;-81
2022/05/04 02:01:28;;;;;;;13.85;5.78;;;;;;;;;;5032475;28;20008;-82
2022/05/04 02:03:54;;;;;;;13.35;5.35;;;;;;;;;;5032549;28;20033;-82
2022/05/04 02:06:19;;;;;;;14.48;5.68;;;;;;;;;;5047879;28;20488;-81
2022/05/04 02:08:45;;;;;;;18.40;6.35;;;;;;;;;;5064331;28;20040;-82
2022/05/04 02:11:10;;;;;;;17.30;5.55;;;;;;;;;;5064267;28;20428;-82
2022/05/04 02:13:35;;;;;;;12.10;5.80;;;;;;;;;;5047151;28;20060;-82
2022/05/04 02:16:01;;;;;;;12.30;5.38;;;;;;;;;;5064802;28;20083;-82
2022/05/04 02:18:26;;;;;;;17.77;5.97;;;;;;;;;;5032570;28;20028;-81
2022/05/04 02:20:51;;;;;;;19.45;5.90;;;;;;;;;;5047676;28;20144;-81
2022/05/04 02:23:16;;;;;;;17.27;6.10;;;;;;;;;;5063499;28;20048;-81
2022/05/04 02:25:42;;;;;;;14.48;5.57;;;;;;;;;;5064159;28;20492;-82
2022/05/04 02:28:07;;;;;;;14.15;5.50;;;;;;;;;;5047649;28;20028;-81
2022/05/04 02:30:32;;;;;;;13.15;5.22;;;;;;;;;;5064436;28;20025;-81
2022/05/04 02:32:57;;;;;;;11.73;5.60;;;;;;;;;;5031431;28;20049;-82
2022/05/04 02:38:06;;;;;;;12.55;4.95;;;;;;;;;;5032213;28;20023;-81
2022/05/04 02:40:32;;;;;;;17.20;5.35;;;;;;;;;;5047514;28;20021;-81
2022/05/04 02:42:57;;;;;;;13.90;5.65;;;;;;;;;;5063823;28;20025;-81
2022/05/04 02:45:22;;;;;;;19.20;5.70;;;;;;;;;;5032038;28;20052;-81
2022/05/04 02:47:47;;;;;;;17.65;5.85;;;;;;;;;;5032144;28;20022;-82
2022/05/04 02:50:12;;;;;;;19.75;5.38;;;;;;;;;;5063913;28;20014;-82
2022/05/04 02:52:38;;;;;;;12.07;5.30;;;;;;;;;;5031268;28;20020;-81
2022/05/04 02:55:04;;;;;;;19.80;5.30;;;;;;;;;;5063554;28;20017;-82
2022/05/04 02:57:29;;;;;;;13.88;5.15;;;;;;;;;;5046977;28;20040;-82
2022/05/04 02:59:54;;;;;;;16.45;5.47;;;;;;;;;;5063814;28;20026;-82
2022/05/04 03:02:29;;;;;;;17.95;5.15;;;;;;;;;;5031600;28;20465;-81
2022/05/04 03:05:01;;;;;;;13.77;4.85;;;;;;;;;;5063570;28;20025;-81
2022/05/04 03:07:27;;;;;;;19.40;5.90;;;;;;;;;;5063426;28;20166;-81
2022/05/04 03:09:53;;;;;;;13.18;5.38;;;;;;;;;;5063806;28;20026;-82
2022/05/04 03:12:18;;;;;;;17.48;6.03;;;;;;;;;;5063403;28;20092;-81
2022/05/04 03:14:44;;;;;;;18.55;5.97;;;;;;;;;;5063943;28;20018;-81
2022/05/04 03:17:09;;;;;;;16.75;5.43;;;;;;;;;;5046970;28;20083;-81
2022/05/04 03:19:35;;;;;;;16.90;5.93;;;;;;;;;;5047166;28;20469;-81
2022/05/04 03:22:00;;;;;;;21.55;5.53;;;;;;;;;;5063394;28;20065;-81
2022/05/04 03:24:25;;;;;;;14.80;5.57;;;;;;;;;;5063915;28;20041;-81
2022/05/04 03:26:50;;;;;;;15.88;4.53;;;;;;;;;;5063453;28;20217;-81
2022/05/04 03:29:16;;;;;;;17.38;5.60;;;;;;;;;;5063451;28;20014;-81
2022/05/04 03:31:41;;;;;;;17.67;5.43;;;;;;;;;;5062698;28;20079;-81
2022/05/04 03:34:06;;;;;;;10.40;5.13;;;;;;;;;;5063118;28;20428;-82
2022/05/04 03:36:32;;;;;;;19.67;5.50;;;;;;;;;;5063382;28;20021;-82
2022/05/04 03:38:58;;;;;;;15.80;6.35;;;;;;;;;;5046444;28;20033;-81
2022/05/04 03:41:23;;;;;;;18.58;6.28;;;;;;;;;;5063066;28;20021;-82
2022/05/04 03:43:48;;;;;;;14.98;5.40;;;;;;;;;;5031603;28;20018;-81
2022/05/04 03:46:21;;;;;;;19.08;5.60;;;;;;;;;;5031350;28;20018;-82
2022/05/04 03:48:46;;;;;;;;;;;;;;;;;;5063791;28;20038;-81
2022/05/04 03:51:13;;;;;;;10.18;5.07;;;;;;;;;;5063621;28;20305;-81
2022/05/04 03:53:38;;;;;;;20.08;6.03;;;;;;;;;;5031352;28;20251;-82
2022/05/04 03:56:04;;;;;;;13.52;5.30;;;;;;;;;;5063371;28;20021;-81
2022/05/04 03:58:29;;;;;;;16.70;5.60;;;;;;;;;;5063028;28;20377;-81
2022/05/04 04:00:54;;;;;;;20.17;5.78;;;;;;;;;;5063253;28;20427;-82
2022/05/04 04:03:19;;;;;;;11.68;5.63;;;;;;;;;;5062471;28;20363;-81
2022/05/04 04:05:45;;;;;;;15.02;5.20;;;;;;;;;;5031204;28;20023;-82
2022/05/04 04:08:10;;;;;;;12.23;5.57;;;;;;;;;;5063149;28;20045;-81
2022/05/04 04:10:35;;;;;;;18.25;6.10;;;;;;;;;;5063306;28;20029;-81
2022/05/04 04:13:01;;;;;;;14.40;5.28;;;;;;;;;;5063235;28;20018;-81
2022/05/04 04:15:27;;;;;;;21.80;5.85;;;;;;;;;;5031216;28;20033;-81
2022/05/04 04:17:53;;;;;;;16.70;5.57;;;;;;;;;;5065806;28;20370;-81
2022/05/04 04:23:01;;;;;;;15.85;5.93;;;;;;;;;;5034279;28;20530;-81
2022/05/04 04:25:27;;;;;;;13.63;5.28;;;;;;;;;;5066446;28;20033;-81
2022/05/04 04:27:52;;;;;;;17.75;6.35;;;;;;;;;;5034722;28;20020;-81
2022/05/04 04:30:17;;;;;;;13.55;5.97;;;;;;;;;;5066698;28;20516;-81
2022/05/04 04:32:42;;;;;;;19.02;5.95;;;;;;;;;;5034062;28;20014;-81
2022/05/04 04:35:08;;;;;;;14.75;5.90;;;;;;;;;;5066489;28;20483;-81
2022/05/04 04:37:33;;;;;;;17.20;6.18;;;;;;;;;;5066333;28;20021;-82
2022/05/04 04:39:58;;;;;;;15.95;5.97;;;;;;;;;;5066364;28;20550;-81
2022/05/04 04:42:23;;;;;;;20.33;5.88;;;;;;;;;;5034160;28;20112;-82
2022/05/04 04:44:49;;;;;;;18.10;6.00;;;;;;;;;;5066467;28;20021;-81
2022/05/04 04:47:14;;;;;;;18.42;5.93;;;;;;;;;;5066037;28;20021;-81
2022/05/04 04:49:39;;;;;;;16.88;6.53;;;;;;;;;;5066343;28;20099;-81
2022/05/04 04:52:04;;;;;;;14.05;5.28;;;;;;;;;;5065783;28;20495;-81
2022/05/04 04:54:29;;;;;;;18.25;5.65;;;;;;;;;;5066229;28;20457;-82
2022/05/04 04:56:55;;;;;;;17.73;6.40;;;;;;;;;;5034280;28;20033;-81
2022/05/04 04:59:20;;;;;;;19.00;6.60;;;;;;;;;;5034079;28;20465;-82
2022/05/04 05:01:45;;;;;;;22.67;6.72;;;;;;;;;;5065297;28;20036;-81
2022/05/04 05:04:10;;;;;;;15.57;5.97;;;;;;;;;;5033694;28;20060;-81
2022/05/04 05:06:35;;;;;;;16.20;6.25;;;;;;;;;;5049040;28;20488;-81
2022/05/04 05:09:01;;;;;;;15.82;5.93;;;;;;;;;;5033854;28;20208;-81
2022/05/04 05:11:26;;;;;;;15.38;5.78;;;;;;;;;;5033175;28;20073;-81
2022/05/04 05:16:35;;;;;;;20.25;6.32;;;;;;;;;;5033626;28;20105;-81
2022/05/04 05:19:00;;;;;;;16.10;5.72;;;;;;;;;;5065897;28;20115;-82
2022/05/04 05:21:25;;;;;;;18.90;5.78;;;;;;;;;;5064811;28;20483;-82
2022/05/04 05:23:51;;;;;;;13.95;5.65;;;;;;;;;;5033098;28;20063;-81
2022/05/04 05:26:16;;;;;;;19.23;6.38;;;;;;;;;;5065556;28;20079;-83
2022/05/04 05:28:41;;;;;;;13.32;6.45;;;;;;;;;;5065022;28;20025;-83
2022/05/04 05:31:06;;;;;;;17.33;7.03;;;;;;;;;;5065159;28;20436;-83
2022/05/04 05:33:31;;;;;;;21.63;6.60;;;;;;;;;;5065323;28;20354;-83
2022/05/04 05:35:57;;;;;;;15.38;6.28;;;;;;;;;;5065456;28;20048;-83
2022/05/04 05:38:25;;;;;;;19.25;6.53;;;;;;;;;;5065375;28;20053;-83
2022/05/04 05:40:50;;;;;;;22.67;6.70;;;;;;;;;;5065242;28;20112;-84
2022/05/04 05:43:15;;;;;;;15.57;6.60;;;;;;;;;;5064227;28;20176;-83
2022/05/04 05:45:40;;;;;;;15.93;6.47;;;;;;;;;;5064807;28;20040;-84
2022/05/04 05:48:06;;;;;;;15.52;6.75;;;;;;;;;;5065135;28;20393;-83
2022/05/04 05:50:33;;;;;;;20.45;7.03;;;;;;;;;;5065365;28;20029;-83
2022/05/04 05:52:59;;;;;;;17.70;6.53;;;;;;;;;;5047707;28;20113;-83
2022/05/04 05:55:24;;;;;;;18.38;7.15;;;;;;;;;;5064801;28;20141;-83
2022/05/04 05:57:49;;;;;;;16.38;6.07;;;;;;;;;;5032935;28;20119;-83
2022/05/04 06:00:15;;;;;;;15.13;6.28;;;;;;;;;;5064850;28;20121;-84
2022/05/04 06:02:40;;;;;;;14.63;6.50;;;;;;;;;;5064463;28;20451;-83
2022/05/04 06:05:06;;;;;;;21.30;7.32;;;;;;;;;;5064740;28;20528;-83
2022/05/04 06:07:31;;;;;;;20.17;7.00;;;;;;;;;;5064531;28;20332;-83
2022/05/04 06:09:56;;;;;;;22.30;6.57;;;;;;;;;;5064849;28;20460;-83
2022/05/04 06:12:21;;;;;;;20.20;6.75;;;;;;;;;;5068643;28;20091;-84
2022/05/04 06:14:47;;;;;;;15.68;6.13;;;;;;;;;;5032169;28;20017;-83
2022/05/04 06:17:12;;;;;;;23.90;7.20;;;;;;;;;;5033281;28;20025;-84
2022/05/04 06:19:38;;;;;;;16.33;5.93;;;;;;;;;;5032093;28;20025;-84
2022/05/04 06:22:03;;;;;;;26.42;6.25;;;;;;;;;;5048255;28;20033;-84
2022/05/04 06:24:28;;;;;;;19.23;6.85;;;;;;;;;;5033562;28;20112;-83
2022/05/04 06:26:53;;;;;;;15.65;6.22;;;;;;;;;;5034537;28;20067;-83
2022/05/04 06:29:19;;;;;;;13.80;6.13;;;;;;;;;;5035713;28;20353;-83
2022/05/04 06:34:27;;;;;;;14.73;6.32;;;;;;;;;;5014024;28;20024;-84
2022/05/04 06:36:53;;;;;;;15.82;6.25;;;;;;;;;;5066907;28;20116;-84
2022/05/04 06:39:18;;;;;;;23.20;6.40;;;;;;;;;;5044881;28;20454;-83
2022/05/04 06:41:43;;;;;;;19.08;6.40;;;;;;;;;;5067029;28;20134;-83
2022/05/04 06:44:09;;;;;;;17.30;5.85;;;;;;;;;;5034592;28;20420;-84
2022/05/04 06:46:36;;;;;;;20.55;6.13;;;;;;;;;;5025753;28;20099;-83
2022/05/04 06:49:01;;;;;;;19.67;6.45;;;;;;;;;;5032038;28;20030;-84
2022/05/04 06:51:26;;;;;;;15.15;5.82;;;;;;;;;;5033232;28;20025;-84
2022/05/04 06:53:52;;;;;;;21.20;6.70;;;;;;;;;;5032033;28;20457;-84
2022/05/04 06:56:17;;;;;;;15.88;4.95;;;;;;;;;;5034239;28;20017;-83
2022/05/04 06:58:44;;;;;;;16.30;5.78;;;;;;;;;;5031750;28;20056;-84
2022/05/04 07:01:10;;;;;;;22.38;6.68;;;;;;;;;;5035456;28;20369;-84
2022/05/04 07:03:36;;;;;;;15.30;5.75;;;;;;;;;;5036157;28;20026;-83
2022/05/04 07:06:01;;;;;;;24.77;6.20;;;;;;;;;;5031848;28;20029;-84
2022/05/04 07:08:26;;;;;;;20.05;6.00;;;;;;;;;;5032460;28;20489;-84
2022/05/04 07:10:52;;;;;;;22.10;6.20;;;;;;;;;;5031639;28;20028;-84
2022/05/04 07:13:17;;;;;;;22.17;6.43;;;;;;;;;;5032975;28;20020;-83
2022/05/04 07:15:42;;;;;;;13.48;4.88;;;;;;;;;;5031589;28;20025;-84
2022/05/04 07:18:08;;;;;;;21.20;6.93;;;;;;;;;;5032881;28;20021;-83
2022/05/04 07:20:33;;;;;;;24.13;6.70;;;;;;;;;;5048362;28;20026;-83
2022/05/04 07:22:58;;;;;;;19.08;6.72;;;;;;;;;;5048345;28;20036;-84
2022/05/04 07:25:23;;;;;;;13.10;4.95;;;;;;;;;;5032959;28;20034;-84
2022/05/04 07:27:49;;;;;;;19.42;6.50;;;;;;;;;;5032859;28;20021;-84
2022/05/04 07:30:14;;;;;;;16.92;5.07;;;;;;;;;;5032496;28;20075;-84
2022/05/04 07:32:39;;;;;;;11.40;4.85;;;;;;;;;;5048289;28;20097;-83
2022/05/04 07:35:05;;;;;;;12.15;4.90;;;;;;;;;;5032630;28;20041;-84
2022/05/04 07:37:31;;;;;;;17.15;6.15;;;;;;;;;;5036238;28;20025;-84
2022/05/04 07:42:40;;;;;;;29.65;6.68;;;;;;;;;;5051475;28;20388;-84
2022/05/04 07:45:08;;;;;;;18.13;6.40;;;;;;;;;;5031197;28;20025;-83
2022/05/04 07:47:34;;;;;;;25.80;6.47;;;;;;;;;;5031285;28;20413;-83
2022/05/04 07:50:00;;;;;;;20.65;5.68;;;;;;;;;;5048095;28;20047;-84
2022/05/04 07:52:25;;;;;;;14.80;4.70;;;;;;;;;;5054966;28;20017;-84
2022/05/04 07:54:50;;;;;;;26.67;6.85;;;;;;;;;;5051637;28;20018;-84
2022/05/04 07:57:16;;;;;;;16.60;5.68;;;;;;;;;;5051764;28;20086;-83
2022/05/04 07:59:41;;;;;;;11.57;5.03;;;;;;;;;;5035468;28;20029;-83
2022/05/04 08:04:50;;;;;;;21.52;6.90;;;;;;;;;;5038368;28;20064;-84
2022/05/04 08:07:19;;;;;;;21.42;7.03;;;;;;;;;;5054734;28;20416;-83
2022/05/04 08:09:44;;;;;;;22.35;7.70;;;;;;;;;;5043866;28;20022;-83
2022/05/04 08:12:12;;;;;;;13.98;5.40;;;;;;;;;;5051100;28;20503;-83
2022/05/04 08:14:39;;;;;;;15.05;5.63;;;;;;;;;;5049470;28;20021;-83
2022/05/04 08:17:05;;;;;;;22.55;8.10;;;;;;;;;;5054348;28;20107;-83
2022/05/04 08:19:30;;;;;;;18.63;7.28;;;;;;;;;;5051234;28;20080;-83
2022/05/04 08:21:56;;;;;;;23.90;7.80;;;;;;;;;;5054626;28;20476;-83
2022/05/04 08:24:21;;;;;;;15.90;7.32;;;;;;;;;;5055509;28;20641;-83
2022/05/04 08:26:47;;;;;;;19.45;6.72;;;;;;;;;;5055829;28;20047;-84
2022/05/04 08:29:12;;;;;;;21.95;9.02;;;;;;;;;;5052077;28;20450;-83
2022/05/04 08:31:38;;;;;;;16.20;7.10;;;;;;;;;;5055712;28;20017;-83
2022/05/04 08:34:03;;;;;;;23.83;7.32;;;;;;;;;;5054652;28;20100;-83
2022/05/04 08:36:28;;;;;;;22.48;7.57;;;;;;;;;;5041589;28;20100;-83
2022/05/04 08:38:54;;;;;;;21.50;7.72;;;;;;;;;;5041106;28;20413;-84
2022/05/04 08:41:20;;;;;;;25.85;8.85;;;;;;;;;;5069409;28;20464;-84
2022/05/04 08:43:47;;;;;;;17.58;5.78;;;;;;;;;;5054410;28;20033;-83
2022/05/04 08:46:13;;;;;;;18.27;8.05;;;;;;;;;;5038627;28;20431;-84
2022/05/04 08:48:39;;;;;;;18.45;7.13;;;;;;;;;;5032745;28;20036;-84
2022/05/04 08:51:04;;;;;;;24.33;8.70;;;;;;;;;;5033114;28;20385;-84
2022/05/04 08:53:30;;;;;;;19.25;8.40;;;;;;;;;;5049635;28;20468;-83
2022/05/04 08:55:56;;;;;;;21.60;8.80;;;;;;;;;;5032492;28;20018;-84
2022/05/04 08:58:21;;;;;;;18.52;9.68;;;;;;;;;;5032764;28;20026;-83
2022/05/04 09:00:46;;;;;;;22.60;9.23;;;;;;;;;;5032524;28;20043;-84
2022/05/04 09:03:11;;;;;;;23.40;9.45;;;;;;;;;;5031828;28;20076;-83
2022/05/04 09:05:40;;;;;;;29.42;9.65;;;;;;;;;;5033362;28;20559;-84
2022/05/04 09:08:06;;;;;;;26.73;9.52;;;;;;;;;;5033862;28;20025;-84
2022/05/04 09:10:36;;;;;;;18.08;8.23;;;;;;;;;;5032701;28;20017;-83
2022/05/04 09:13:02;;;;;;;22.25;7.20;;;;;;;;;;5032360;28;20029;-83
2022/05/04 09:15:31;;;;;;;21.83;9.40;;;;;;;;;;5032157;28;20028;-83
2022/05/04 09:17:57;;;;;;;24.50;9.32;;;;;;;;;;5033526;28;20024;-83
2022/05/04 09:23:11;;;;;;;19.65;8.82;;;;;;;;;;5033400;28;20029;-83
2022/05/04 09:25:36;;;;;;;28.92;7.97;;;;;;;;;;5031598;28;20048;-83
2022/05/04 09:28:01;;;;;;;24.08;8.13;;;;;;;;;;5033377;28;20017;-84
2022/05/04 09:30:27;;;;;;;17.65;8.23;;;;;;;;;;5031983;28;20026;-84
2022/05/04 09:32:52;;;;;;;20.33;8.98;;;;;;;;;;5031947;28;20018;-84
2022/05/04 09:35:17;;;;;;;23.40;8.05;;;;;;;;;;5031463;28;20020;-84
2022/05/04 09:46:01;;;;;;;23.92;10.00;;;;;;;;;;5033267;28;20056;-83
2022/05/04 09:48:30;;;;;;;19.17;9.65;;;;;;;;;;5031625;28;20480;-84
2022/05/04 09:51:06;;;;;;;18.42;8.23;;;;;;;;;;5031671;28;20028;-83
2022/05/04 09:53:31;;;;;;;23.02;8.90;;;;;;;;;;5031774;28;20029;-83
2022/05/04 09:55:57;;;;;;;18.27;6.70;;;;;;;;;;5032514;28;20039;-84
2022/05/04 09:58:23;;;;;;;18.23;8.23;;;;;;;;;;5031707;28;20559;-84
2022/05/04 10:00:48;;;;;;;22.13;9.23;;;;;;;;;;5031956;28;20027;-84
2022/05/04 10:03:14;;;;;;;29.60;10.35;;;;;;;;;;5031501;28;20112;-83
2022/05/04 10:05:39;;;;;;;20.17;9.02;;;;;;;;;;5032003;28;20372;-83
2022/05/04 10:08:05;;;;;;;16.33;8.25;;;;;;;;;;5031428;28;20075;-84
2022/05/04 10:10:30;;;;;;;24.70;7.75;;;;;;;;;;5031571;28;20049;-84
2022/05/04 10:12:56;;;;;;;15.73;7.35;;;;;;;;;;5031144;28;20377;-84
2022/05/04 10:15:21;;;;;;;25.50;10.57;;;;;;;;;;5030798;28;20020;-84
2022/05/04 10:17:49;;;;;;;20.83;6.97;;;;;;;;;;5031489;28;20067;-84
2022/05/04 10:20:19;;;;;;;22.17;9.48;;;;;;;;;;5031378;28;20095;-84
2022/05/04 10:22:48;;;;;;;25.00;8.55;;;;;;;;;;5031137;28;20139;-84
2022/05/04 10:25:14;;;;;;;17.45;8.07;;;;;;;;;;5030831;28;20465;-84
2022/05/04 10:27:40;;;;;;;17.23;7.70;;;;;;;;;;5032314;28;20032;-84
2022/05/04 10:32:51;;;;;;;17.67;7.68;;;;;;;;;;5032738;28;20024;-84
2022/05/04 10:35:17;;;;;;;21.95;8.55;;;;;;;;;;5031897;28;20096;-84
2022/05/04 10:37:51;;;;;;;21.25;8.95;;;;;;;;;;5031063;28;20120;-84
2022/05/04 10:40:21;;;;;;;20.85;9.50;;;;;;;;;;5031094;28;20036;-84
2022/05/04 10:42:57;;;;;;;25.23;9.65;;;;;;;;;;5032224;28;20025;-84
2022/05/04 10:45:48;;;;;;;24.00;10.00;;;;;;;;;;5031868;28;20029;-83
2022/05/04 10:48:19;;;;;;;14.73;6.82;;;;;;;;;;5028280;28;20562;-84
2022/05/04 10:50:48;;;;;;;21.63;9.70;;;;;;;;;;5031883;28;20013;-84
2022/05/04 10:53:19;;;;;;;18.00;8.70;;;;;;;;;;5032034;28;20239;-84
2022/05/04 10:55:53;;;;;;;25.92;9.30;;;;;;;;;;5030561;28;20089;-84
2022/05/04 10:58:31;;;;;;;22.30;8.15;;;;;;;;;;5030724;28;20041;-84
2022/05/04 11:01:16;;;;;;;22.80;8.63;;;;;;;;;;5031710;28;20052;-84
2022/05/04 11:03:58;;;;;;;23.95;9.05;;;;;;;;;;5031961;28;20029;-84
2022/05/04 11:06:28;;;;;;;23.20;10.60;;;;;;;;;;5030184;28;20025;-84
2022/05/04 11:08:56;;;;;;;19.25;8.70;;;;;;;;;;5031284;28;20091;-84
2022/05/04 11:11:22;;;;;;;20.60;9.13;;;;;;;;;;5031539;28;20097;-84
2022/05/04 11:13:47;;;;;;;20.35;8.80;;;;;;;;;;5030316;28;20163;-84
2022/05/04 11:16:12;;;;;;;19.55;9.10;;;;;;;;;;5029788;28;20429;-84
2022/05/04 11:18:38;;;;;;;20.58;8.70;;;;;;;;;;5031812;28;20025;-84
2022/05/04 11:21:05;;;;;;;21.83;9.38;;;;;;;;;;5031970;28;20029;-84
2022/05/04 11:23:31;;;;;;;23.67;7.63;;;;;;;;;;5030047;28;20030;-84
2022/05/04 11:25:56;;;;;;;19.67;7.82;;;;;;;;;;5032861;28;20476;-84
2022/05/04 11:28:24;;;;;;;17.92;7.32;;;;;;;;;;5034520;28;20401;-84
2022/05/04 11:30:54;;;;;;;21.38;8.77;;;;;;;;;;5034477;28;20028;-84
2022/05/04 11:33:20;;;;;;;19.75;8.23;;;;;;;;;;5050844;28;20021;-84
2022/05/04 11:35:51;;;;;;;18.30;7.18;;;;;;;;;;5034813;28;20548;-84
2022/05/04 11:38:20;;;;;;;16.02;7.35;;;;;;;;;;5034120;28;20116;-84
2022/05/04 11:40:46;;;;;;;18.58;8.43;;;;;;;;;;5034157;28;20025;-84
2022/05/04 11:43:27;;;;;;;23.85;10.52;;;;;;;;;;5033791;28;20056;-84
2022/05/04 11:45:53;;;;;;;18.55;7.97;;;;;;;;;;5033360;28;20032;-84
2022/05/04 11:48:18;;;;;;;16.58;7.57;;;;;;;;;;5035157;28;20033;-84
2022/05/04 11:50:44;;;;;;;15.77;7.75;;;;;;;;;;5035061;28;20028;-84
2022/05/04 11:53:09;;;;;;;18.50;7.00;;;;;;;;;;5035295;28;20381;-84
2022/05/04 11:55:35;;;;;;;19.30;7.30;;;;;;;;;;5033510;28;20045;-84
2022/05/04 11:58:00;;;;;;;15.93;7.95;;;;;;;;;;5034145;28;20025;-84
2022/05/04 12:00:25;;;;;;;21.20;8.35;;;;;;;;;;5033999;28;20040;-84
2022/05/04 12:02:50;;;;;;;14.80;6.38;;;;;;;;;;5035148;28;20017;-84
2022/05/04 12:05:16;;;;;;;16.45;9.30;;;;;;;;;;5033770;28;20026;-84
2022/05/04 12:07:41;;;;;;;16.77;5.93;;;;;;;;;;5033584;28;20029;-84
2022/05/04 12:10:07;;;;;;;21.45;8.10;;;;;;;;;;5034903;28;20045;-84
2022/05/04 12:12:32;;;;;;;13.20;6.28;;;;;;;;;;5050272;28;20025;-84
2022/05/04 12:15:00;;;;;;;14.00;6.85;;;;;;;;;;5033327;28;20428;-84
2022/05/04 12:17:26;;;;;;;19.13;8.05;;;;;;;;;;5034866;28;20017;-84
2022/05/04 12:19:51;;;;;;;20.55;8.02;;;;;;;;;;5033127;28;20092;-84
2022/05/04 12:22:17;;;;;;;16.58;7.10;;;;;;;;;;5034618;28;20401;-84
2022/05/04 12:24:43;;;;;;;18.17;7.07;;;;;;;;;;5033035;28;20028;-84
2022/05/04 12:27:08;;;;;;;17.75;7.43;;;;;;;;;;5033134;28;20452;-84
2022/05/04 12:44:53;;;;;;;17.83;8.10;;;;;;;;;;5130096;27;20354;-89
2022/05/04 12:47:19;;;;;;;17.95;7.10;;;;;;;;;;5129970;27;20027;-89
2022/05/04 12:49:45;;;;;;;15.05;5.85;;;;;;;;;;5129737;27;20023;-89
2022/05/04 12:52:10;;;;;;;13.35;6.30;;;;;;;;;;5128699;27;20019;-89
2022/05/04 12:54:37;;;;;;;20.92;7.53;;;;;;;;;;5130168;27;20103;-89
2022/05/04 12:57:03;;;;;;;16.48;6.88;;;;;;;;;;5129049;27;20477;-90
2022/05/04 12:59:28;;;;;;;20.23;8.07;;;;;;;;;;5128717;27;20062;-90
2022/05/04 13:01:54;;;;;;;15.05;6.60;;;;;;;;;;5130365;27;20034;-89
2022/05/04 13:04:19;;;;;;;16.23;6.78;;;;;;;;;;5130161;27;20055;-90
2022/05/04 13:06:44;;;;;;;19.15;8.18;;;;;;;;;;5129267;27;20379;-89
2022/05/04 13:09:10;;;;;;;18.27;8.02;;;;;;;;;;5128265;27;20072;-89
2022/05/04 13:11:35;;;;;;;21.52;7.95;;;;;;;;;;5128236;27;20023;-89
2022/05/04 13:14:00;;;;;;;13.30;6.70;;;;;;;;;;5128443;27;20055;-90
2022/05/04 13:16:26;;;;;;;13.82;7.82;;;;;;;;;;5128706;27;20026;-90
2022/05/04 13:18:51;;;;;;;14.70;5.93;;;;;;;;;;5128137;27;20020;-90
2022/05/04 13:21:18;;;;;;;19.95;7.65;;;;;;;;;;5128401;27;20370;-90
2022/05/04 13:23:44;;;;;;;11.05;5.30;;;;;;;;;;5126960;27;20092;-90
2022/05/04 13:26:10;;;;;;;17.40;6.38;;;;;;;;;;5118714;27;20059;-90
2022/05/04 13:28:35;;;;;;;14.70;5.88;;;;;;;;;;5108727;28;20016;-89
2022/05/04 13:31:00;;;;;;;18.00;7.30;;;;;;;;;;5107876;28;20065;-90
2022/05/04 13:33:26;;;;;;;16.40;7.10;;;;;;;;;;5108076;28;20485;-90
2022/05/04 13:35:51;;;;;;;18.17;6.72;;;;;;;;;;5107848;28;20016;-90
2022/05/04 13:38:16;;;;;;;17.63;6.95;;;;;;;;;;5108946;28;20432;-90
2022/05/04 13:40:42;;;;;;;23.08;7.25;;;;;;;;;;5107785;28;20020;-90
2022/05/04 13:43:08;;;;;;;11.68;5.07;;;;;;;;;;5108819;28;20493;-90
2022/05/04 13:45:34;;;;;;;18.52;5.72;;;;;;;;;;5096104;28;20031;-90
2022/05/04 13:47:59;;;;;;;13.95;6.63;;;;;;;;;;5093690;28;20024;-90
2022/05/04 13:53:14;;;;;;;13.30;5.95;;;;;;;;;;5095496;28;20034;-89
2022/05/04 13:55:39;;;;;;;19.73;6.40;;;;;;;;;;5094280;28;20016;-90
2022/05/04 13:58:04;;;;;;;16.65;5.30;;;;;;;;;;5094075;28;20115;-90
2022/05/04 14:00:30;;;;;;;14.38;5.40;;;;;;;;;;5095208;28;20432;-90
2022/05/04 14:02:55;;;;;;;12.10;5.90;;;;;;;;;;5095157;28;20032;-91
2022/05/04 14:05:20;;;;;;;13.13;5.68;;;;;;;;;;5093882;28;20020;-91
2022/05/04 14:07:46;;;;;;;16.38;4.95;;;;;;;;;;5093448;28;20127;-90
2022/05/04 14:10:11;;;;;;;13.80;6.75;;;;;;;;;;5094623;28;20088;-91
2022/05/04 14:12:36;;;;;;;16.15;6.20;;;;;;;;;;5093210;28;20031;-90
2022/05/04 14:15:02;;;;;;;15.48;6.20;;;;;;;;;;5093883;28;20031;-91
2022/05/04 14:17:27;;;;;;;17.13;6.10;;;;;;;;;;5093684;28;20481;-91
2022/05/04 14:19:52;;;;;;;18.08;6.20;;;;;;;;;;5093269;28;20020;-91
2022/05/04 14:22:17;;;;;;;19.30;8.27;;;;;;;;;;5093464;28;20031;-90
2022/05/04 14:24:43;;;;;;;15.52;6.00;;;;;;;;;;5094692;28;20480;-90
2022/05/04 14:27:08;;;;;;;19.08;7.53;;;;;;;;;;5093658;28;20469;-90
2022/05/04 14:29:34;;;;;;;14.70;6.93;;;;;;;;;;5093098;28;20026;-91
2022/05/04 14:31:59;;;;;;;17.08;8.25;;;;;;;;;;5093385;28;20054;-91
2022/05/04 14:34:24;;;;;;;13.82;7.47;;;;;;;;;;5093324;28;20032;-90
2022/05/04 14:36:50;;;;;;;21.70;6.82;;;;;;;;;;5094666;28;20016;-91
2022/05/04 14:39:15;;;;;;;19.98;7.95;;;;;;;;;;5092809;28;20013;-90
2022/05/04 14:41:41;;;;;;;18.30;6.25;;;;;;;;;;5093144;28;20026;-90
2022/05/04 14:44:06;;;;;;;14.95;3.78;;;;;;;;;;5094453;28;20058;-90
2022/05/04 14:46:32;;;;;;;13.10;6.20;;;;;;;;;;5094586;28;20016;-90
2022/05/04 14:48:57;;;;;;;18.92;5.22;;;;;;;;;;5093883;28;20166;-91
2022/05/04 14:51:22;;;;;;;11.63;5.47;;;;;;;;;;5092831;28;20663;-90
2022/05/04 14:53:51;;;;;;;7.82;4.05;;;;;;;;;;5092323;28;20024;-90
2022/05/04 14:56:19;;;;;;;15.48;4.65;;;;;;;;;;5091643;28;20016;-90
2022/05/04 14:58:44;;;;;;;9.50;3.92;;;;;;;;;;5092345;28;20016;-90
2022/05/04 15:01:10;;;;;;;7.63;3.35;;;;;;;;;;5093136;28;20035;-90
2022/05/04 15:06:19;;;;;;;8.43;4.05;;;;;;;;;;5093892;28;20382;-90
2022/05/04 15:08:44;;;;;;;7.25;4.07;;;;;;;;;;5092158;28;20020;-90
2022/05/04 15:11:09;;;;;;;17.33;6.55;;;;;;;;;;5092691;28;20016;-91
2022/05/04 15:13:35;;;;;;;10.70;3.80;;;;;;;;;;5092608;28;20052;-90
2022/05/04 15:16:00;;;;;;;6.70;3.70;;;;;;;;;;5092906;28;20102;-90
2022/05/04 15:18:25;;;;;;;12.00;3.70;;;;;;;;;;5093314;28;20023;-91